Time;durP1;ratioP1;P1;durP2;ratioP2;P2;SDS_P1;SDS_P2;PMS_P1;PMS_P2;Temp;Humidity;BMP_temperature;BMP_pressure;BME280_temperature;BME280_humidity;BME280_pressure;Samples;Min_cycle;Max_cycle;Signal;HPM_P1;HPM_P2
2023/09/30 00:00:11;;;;;;;8.40;5.45;;;;;;;;;;4993441;28;20195;-70
2023/09/30 00:02:36;;;;;;;9.77;5.85;;;;;;;;;;4988093;28;20183;-70
2023/09/30 00:05:02;;;;;;;13.15;6.60;;;;;;;;;;4992263;28;20207;-70
2023/09/30 00:07:27;;;;;;;11.25;5.72;;;;;;;;;;4993312;28;20199;-70
2023/09/30 00:09:52;;;;;;;17.42;7.25;;;;;;;;;;4993060;28;20298;-70
2023/09/30 00:12:17;;;;;;;13.02;7.22;;;;;;;;;;4992608;28;20262;-70
2023/09/30 00:14:43;;;;;;;10.95;6.35;;;;;;;;;;4993171;28;20495;-70
2023/09/30 00:17:08;;;;;;;11.48;5.65;;;;;;;;;;4992254;28;20243;-70
2023/09/30 00:19:33;;;;;;;15.70;5.68;;;;;;;;;;4990045;28;20261;-70
2023/09/30 00:21:59;;;;;;;11.32;6.47;;;;;;;;;;4996207;28;20230;-70
2023/09/30 00:24:25;;;;;;;12.75;7.20;;;;;;;;;;4992520;28;20233;-70
2023/09/30 00:26:50;;;;;;;13.30;7.32;;;;;;;;;;4990928;28;20208;-70
2023/09/30 00:29:17;;;;;;;18.30;7.07;;;;;;;;;;5017669;22;20213;-65
2023/09/30 00:31:44;;;;;;;11.50;6.47;;;;;;;;;;5028999;28;20178;-65
2023/09/30 00:34:09;;;;;;;16.20;9.30;;;;;;;;;;5030258;28;20567;-65
2023/09/30 00:36:34;;;;;;;19.17;7.50;;;;;;;;;;5029734;28;20182;-65
2023/09/30 00:38:59;;;;;;;20.10;8.23;;;;;;;;;;5026880;28;20645;-66
2023/09/30 00:41:24;;;;;;;15.38;8.70;;;;;;;;;;5025190;28;20178;-66
2023/09/30 00:43:50;;;;;;;19.27;7.93;;;;;;;;;;5028437;28;20240;-65
2023/09/30 00:46:31;;;;;;;11.45;7.07;;;;;;;;;;5031102;28;20718;-65
2023/09/30 00:48:58;;;;;;;13.50;7.32;;;;;;;;;;5031530;28;20178;-65
2023/09/30 00:51:23;;;;;;;11.77;6.22;;;;;;;;;;5031994;28;20175;-65
2023/09/30 00:53:52;;;;;;;11.25;6.95;;;;;;;;;;5029822;28;20181;-65
2023/09/30 00:56:18;;;;;;;20.63;8.02;;;;;;;;;;5028885;28;20183;-66
2023/09/30 00:58:44;;;;;;;15.90;8.18;;;;;;;;;;5027958;28;20236;-66
2023/09/30 01:01:09;;;;;;;22.98;8.40;;;;;;;;;;5027233;28;20205;-66
2023/09/30 01:03:34;;;;;;;15.73;8.80;;;;;;;;;;5026236;28;20225;-66
2023/09/30 01:06:00;;;;;;;22.10;10.25;;;;;;;;;;5029816;28;20205;-67
2023/09/30 01:08:27;;;;;;;20.02;8.32;;;;;;;;;;5030204;28;20257;-66
2023/09/30 01:10:52;;;;;;;13.20;7.70;;;;;;;;;;5028373;28;20191;-66
2023/09/30 01:13:17;;;;;;;18.33;7.97;;;;;;;;;;5029375;28;20182;-66
2023/09/30 01:15:42;;;;;;;13.13;7.28;;;;;;;;;;5026327;28;20262;-66
2023/09/30 01:18:08;;;;;;;16.95;7.07;;;;;;;;;;5028339;28;20308;-66
2023/09/30 01:20:33;;;;;;;20.13;9.15;;;;;;;;;;5028743;28;20252;-66
2023/09/30 01:22:58;;;;;;;15.70;8.30;;;;;;;;;;5027540;28;20463;-66
2023/09/30 01:25:24;;;;;;;19.48;9.13;;;;;;;;;;5028607;28;20205;-66
2023/09/30 01:27:51;;;;;;;16.13;8.63;;;;;;;;;;5031206;28;20224;-66
2023/09/30 01:30:17;;;;;;;16.77;8.65;;;;;;;;;;5026330;28;20213;-67
2023/09/30 01:32:43;;;;;;;13.63;8.10;;;;;;;;;;5025902;28;20174;-67
2023/09/30 01:35:08;;;;;;;12.25;7.20;;;;;;;;;;5028864;28;20182;-67
2023/09/30 01:37:33;;;;;;;14.07;8.43;;;;;;;;;;5028156;28;20182;-66
2023/09/30 01:39:58;;;;;;;19.33;9.00;;;;;;;;;;5029634;28;20205;-66
2023/09/30 01:42:24;;;;;;;11.60;7.63;;;;;;;;;;5027357;28;20262;-66
2023/09/30 01:44:49;;;;;;;12.23;6.95;;;;;;;;;;5027337;28;20645;-66
2023/09/30 01:47:14;;;;;;;15.27;8.45;;;;;;;;;;5026397;28;20638;-66
2023/09/30 01:49:39;;;;;;;13.95;7.75;;;;;;;;;;5027749;28;20249;-66
2023/09/30 01:52:05;;;;;;;13.70;7.72;;;;;;;;;;5025874;28;20535;-66
2023/09/30 01:54:30;;;;;;;15.13;8.52;;;;;;;;;;5029431;28;20253;-66
2023/09/30 01:56:55;;;;;;;18.48;8.68;;;;;;;;;;5027999;28;20185;-66
2023/09/30 01:59:21;;;;;;;18.00;9.40;;;;;;;;;;5028060;28;20384;-66
2023/09/30 02:01:47;;;;;;;18.30;10.10;;;;;;;;;;5027844;28;20712;-66
2023/09/30 02:04:15;;;;;;;16.45;9.93;;;;;;;;;;5024359;28;20194;-66
2023/09/30 02:06:41;;;;;;;23.25;10.20;;;;;;;;;;5024379;28;20244;-66
2023/09/30 02:09:08;;;;;;;21.55;10.30;;;;;;;;;;5028432;28;20210;-66
2023/09/30 02:11:34;;;;;;;16.25;10.07;;;;;;;;;;5025250;28;20190;-66
2023/09/30 02:13:59;;;;;;;18.77;10.63;;;;;;;;;;5028391;28;20182;-66
2023/09/30 02:16:24;;;;;;;16.02;10.13;;;;;;;;;;5025726;28;20175;-66
2023/09/30 02:18:50;;;;;;;19.50;11.13;;;;;;;;;;5026060;28;20179;-66
2023/09/30 02:21:16;;;;;;;16.45;9.73;;;;;;;;;;5026813;28;20206;-66
2023/09/30 02:23:41;;;;;;;18.55;9.45;;;;;;;;;;5026446;28;20186;-66
2023/09/30 02:26:06;;;;;;;18.77;9.63;;;;;;;;;;5027550;28;20729;-66
2023/09/30 02:28:33;;;;;;;17.75;9.45;;;;;;;;;;5022956;28;20182;-66
2023/09/30 02:30:59;;;;;;;18.85;10.63;;;;;;;;;;5025435;28;20223;-66
2023/09/30 02:33:25;;;;;;;18.83;10.35;;;;;;;;;;5026587;28;20174;-66
2023/09/30 02:35:51;;;;;;;21.45;9.93;;;;;;;;;;5026734;28;20658;-66
2023/09/30 02:38:17;;;;;;;20.77;10.50;;;;;;;;;;5025385;28;20222;-66
2023/09/30 02:40:46;;;;;;;18.25;11.27;;;;;;;;;;5024839;28;20201;-67
2023/09/30 02:43:11;;;;;;;31.42;10.60;;;;;;;;;;5028474;28;20324;-67
2023/09/30 02:45:36;;;;;;;16.17;10.32;;;;;;;;;;5024184;28;20285;-66
2023/09/30 02:48:02;;;;;;;13.13;9.30;;;;;;;;;;5028242;28;20249;-66
2023/09/30 02:50:27;;;;;;;18.10;11.00;;;;;;;;;;5028899;28;20198;-67
2023/09/30 02:52:52;;;;;;;20.08;10.70;;;;;;;;;;5024877;28;20587;-67
2023/09/30 02:55:17;;;;;;;21.58;11.25;;;;;;;;;;5027969;28;20186;-66
2023/09/30 02:57:43;;;;;;;18.27;10.00;;;;;;;;;;5031604;28;20183;-65
2023/09/30 03:00:23;;;;;;;20.48;10.98;;;;;;;;;;5033885;28;20213;-66
2023/09/30 03:02:52;;;;;;;19.38;10.40;;;;;;;;;;5031211;28;20185;-67
2023/09/30 03:05:17;;;;;;;19.95;10.15;;;;;;;;;;5028091;28;20634;-65
2023/09/30 03:07:43;;;;;;;19.50;9.73;;;;;;;;;;5029984;28;20170;-65
2023/09/30 03:10:08;;;;;;;15.15;10.38;;;;;;;;;;5029319;28;20197;-66
2023/09/30 03:12:34;;;;;;;17.65;9.80;;;;;;;;;;5032570;28;20178;-66
2023/09/30 03:14:59;;;;;;;13.80;7.90;;;;;;;;;;5025288;28;20195;-66
2023/09/30 03:17:25;;;;;;;15.25;9.05;;;;;;;;;;5032636;28;20221;-66
2023/09/30 03:19:51;;;;;;;14.20;8.40;;;;;;;;;;5028538;28;20230;-67
2023/09/30 03:22:16;;;;;;;17.80;9.52;;;;;;;;;;5030886;28;20603;-66
2023/09/30 03:24:41;;;;;;;13.55;9.32;;;;;;;;;;5030133;28;20183;-66
2023/09/30 03:27:07;;;;;;;20.42;10.02;;;;;;;;;;5031622;28;20202;-66
2023/09/30 03:29:32;;;;;;;22.77;11.55;;;;;;;;;;5029599;28;20216;-66
2023/09/30 03:31:57;;;;;;;20.77;10.60;;;;;;;;;;5029234;28;20185;-66
2023/09/30 03:34:22;;;;;;;20.10;11.23;;;;;;;;;;5031220;28;20236;-65
2023/09/30 03:36:49;;;;;;;18.35;9.32;;;;;;;;;;5030924;28;20179;-67
2023/09/30 03:39:15;;;;;;;14.20;8.93;;;;;;;;;;5031722;28;20178;-65
2023/09/30 03:41:40;;;;;;;16.33;10.50;;;;;;;;;;5029676;28;20273;-65
2023/09/30 03:44:06;;;;;;;18.05;10.30;;;;;;;;;;5032412;28;20258;-65
2023/09/30 03:46:31;;;;;;;18.75;11.73;;;;;;;;;;5032332;28;20201;-65
2023/09/30 03:48:56;;;;;;;19.38;10.57;;;;;;;;;;5025440;28;20174;-65
2023/09/30 03:51:24;;;;;;;19.20;10.80;;;;;;;;;;5031746;28;20259;-66
2023/09/30 03:53:50;;;;;;;19.80;9.82;;;;;;;;;;5030738;28;20645;-65
2023/09/30 03:56:15;;;;;;;17.45;10.82;;;;;;;;;;5029450;28;20185;-65
2023/09/30 03:58:41;;;;;;;20.98;10.90;;;;;;;;;;5031884;28;20181;-65
2023/09/30 04:01:07;;;;;;;24.95;12.57;;;;;;;;;;5030581;28;20198;-67
2023/09/30 04:03:33;;;;;;;21.65;12.27;;;;;;;;;;5027734;28;20657;-65
2023/09/30 04:05:58;;;;;;;18.13;11.00;;;;;;;;;;5028940;28;20229;-66
2023/09/30 04:08:23;;;;;;;21.35;11.77;;;;;;;;;;5028844;28;20623;-66
2023/09/30 04:10:49;;;;;;;15.02;8.82;;;;;;;;;;5029035;28;20205;-66
2023/09/30 04:13:14;;;;;;;17.33;10.30;;;;;;;;;;5026122;28;20195;-65
2023/09/30 04:15:39;;;;;;;17.95;10.25;;;;;;;;;;5028529;28;20190;-65
2023/09/30 04:18:07;;;;;;;21.88;10.77;;;;;;;;;;5026504;28;20186;-65
2023/09/30 04:20:33;;;;;;;20.27;10.90;;;;;;;;;;5028769;28;20685;-64
2023/09/30 04:22:58;;;;;;;25.08;10.38;;;;;;;;;;5026525;28;20193;-66
2023/09/30 04:25:24;;;;;;;21.05;10.52;;;;;;;;;;5029864;28;20194;-65
2023/09/30 04:27:50;;;;;;;18.88;10.75;;;;;;;;;;5026910;28;20685;-64
2023/09/30 04:30:15;;;;;;;16.83;10.60;;;;;;;;;;5030795;28;20209;-64
2023/09/30 04:32:40;;;;;;;18.52;11.70;;;;;;;;;;5029627;28;20175;-66
2023/09/30 04:35:05;;;;;;;19.67;9.95;;;;;;;;;;5029461;28;20193;-66
2023/09/30 04:37:31;;;;;;;17.00;10.80;;;;;;;;;;5026279;28;20182;-65
2023/09/30 04:39:58;;;;;;;17.05;10.48;;;;;;;;;;5032810;28;20229;-64
2023/09/30 04:42:25;;;;;;;18.52;11.48;;;;;;;;;;5029714;28;20561;-65
2023/09/30 04:44:50;;;;;;;19.95;11.77;;;;;;;;;;5029236;28;20187;-67
2023/09/30 04:47:15;;;;;;;20.42;11.40;;;;;;;;;;5030323;28;20190;-66
2023/09/30 04:49:43;;;;;;;25.33;13.00;;;;;;;;;;5028538;28;20206;-66
2023/09/30 04:52:09;;;;;;;23.05;12.65;;;;;;;;;;5029185;28;20241;-66
2023/09/30 04:54:35;;;;;;;19.88;12.30;;;;;;;;;;5030600;28;20182;-66
2023/09/30 04:57:00;;;;;;;20.63;11.40;;;;;;;;;;5027427;28;20193;-66
2023/09/30 04:59:26;;;;;;;24.65;11.65;;;;;;;;;;5027964;28;20198;-66
2023/09/30 05:01:51;;;;;;;23.92;13.43;;;;;;;;;;5020948;28;20241;-66
2023/09/30 05:04:17;;;;;;;20.25;11.98;;;;;;;;;;5027724;28;20187;-66
2023/09/30 05:06:42;;;;;;;24.73;13.88;;;;;;;;;;5029306;28;20248;-66
2023/09/30 05:09:07;;;;;;;23.35;12.63;;;;;;;;;;5029396;28;20194;-65
2023/09/30 05:11:33;;;;;;;21.98;12.55;;;;;;;;;;5029234;28;20224;-66
2023/09/30 05:13:59;;;;;;;23.15;11.48;;;;;;;;;;5027402;28;20171;-66
2023/09/30 05:16:27;;;;;;;26.67;14.10;;;;;;;;;;5031013;28;20687;-66
2023/09/30 05:18:52;;;;;;;27.60;14.30;;;;;;;;;;5025127;28;20178;-65
2023/09/30 05:21:17;;;;;;;21.23;13.48;;;;;;;;;;5029138;28;20232;-66
2023/09/30 05:23:42;;;;;;;24.85;12.15;;;;;;;;;;5027370;28;20213;-66
2023/09/30 05:26:07;;;;;;;20.10;13.00;;;;;;;;;;5030406;28;20572;-66
2023/09/30 05:28:32;;;;;;;21.25;12.73;;;;;;;;;;5027179;28;20650;-66
2023/09/30 05:30:58;;;;;;;20.02;12.57;;;;;;;;;;5023936;28;20242;-66
2023/09/30 05:33:23;;;;;;;21.08;12.70;;;;;;;;;;5028558;28;20638;-66
2023/09/30 05:35:48;;;;;;;24.17;13.00;;;;;;;;;;5027029;28;20183;-66
2023/09/30 05:38:13;;;;;;;23.83;13.00;;;;;;;;;;5027586;28;20190;-66
2023/09/30 05:40:39;;;;;;;23.35;13.82;;;;;;;;;;5024853;28;20203;-66
2023/09/30 05:43:05;;;;;;;25.88;14.25;;;;;;;;;;5029476;28;20182;-67
2023/09/30 05:45:31;;;;;;;30.17;14.90;;;;;;;;;;5027474;28;20212;-66
2023/09/30 05:47:57;;;;;;;24.27;14.20;;;;;;;;;;5024378;28;20170;-66
2023/09/30 05:50:26;;;;;;;25.45;12.77;;;;;;;;;;5023573;28;20194;-66
2023/09/30 05:52:52;;;;;;;24.70;13.73;;;;;;;;;;5025960;28;20174;-67
2023/09/30 05:55:20;;;;;;;24.23;16.00;;;;;;;;;;5027885;28;20672;-66
2023/09/30 05:57:52;;;;;;;28.38;14.88;;;;;;;;;;5028168;28;20189;-66
2023/09/30 06:00:22;;;;;;;25.13;14.95;;;;;;;;;;5028614;28;20206;-66
2023/09/30 06:02:48;;;;;;;19.70;14.05;;;;;;;;;;5030578;28;20181;-66
2023/09/30 06:05:15;;;;;;;21.13;14.00;;;;;;;;;;5027048;28;20206;-65
2023/09/30 06:07:41;;;;;;;25.88;14.82;;;;;;;;;;5029260;28;20178;-66
2023/09/30 06:10:06;;;;;;;23.20;13.77;;;;;;;;;;5027020;28;20987;-65
2023/09/30 06:12:31;;;;;;;25.23;14.82;;;;;;;;;;5027721;28;20171;-65
2023/09/30 06:14:58;;;;;;;28.40;15.13;;;;;;;;;;5027702;28;20205;-65
2023/09/30 06:17:23;;;;;;;27.52;15.43;;;;;;;;;;5029473;28;20174;-66
2023/09/30 06:19:50;;;;;;;30.38;16.08;;;;;;;;;;5027919;28;20190;-65
2023/09/30 06:22:15;;;;;;;27.58;14.85;;;;;;;;;;5024522;28;20209;-66
2023/09/30 06:24:41;;;;;;;30.58;16.70;;;;;;;;;;5029096;28;20170;-65
2023/09/30 06:27:06;;;;;;;36.63;19.63;;;;;;;;;;5030185;28;20202;-65
2023/09/30 06:29:31;;;;;;;36.03;20.73;;;;;;;;;;5049366;23;20213;-68
2023/09/30 06:31:56;;;;;;;44.67;21.10;;;;;;;;;;5034293;28;20179;-69
2023/09/30 06:34:21;;;;;;;34.80;20.20;;;;;;;;;;5030278;28;20608;-69
2023/09/30 06:36:47;;;;;;;39.35;21.77;;;;;;;;;;5032989;28;20170;-69
2023/09/30 06:39:12;;;;;;;39.92;21.48;;;;;;;;;;5034815;28;20269;-69
2023/09/30 06:41:39;;;;;;;37.90;20.20;;;;;;;;;;5039084;28;20252;-69
2023/09/30 06:44:04;;;;;;;37.33;21.60;;;;;;;;;;5023774;28;20178;-69
2023/09/30 06:46:29;;;;;;;36.53;21.00;;;;;;;;;;5021305;28;20206;-70
2023/09/30 06:48:54;;;;;;;40.28;21.33;;;;;;;;;;5025156;28;20672;-69
2023/09/30 06:51:20;;;;;;;35.65;21.58;;;;;;;;;;5021489;28;20191;-69
2023/09/30 06:53:48;;;;;;;30.50;18.48;;;;;;;;;;5025022;28;20265;-71
2023/09/30 06:56:13;;;;;;;33.88;20.40;;;;;;;;;;5032695;28;20674;-69
2023/09/30 06:58:38;;;;;;;31.48;19.60;;;;;;;;;;5019075;28;20189;-70
2023/09/30 07:01:03;;;;;;;33.80;19.33;;;;;;;;;;5022898;28;20205;-70
2023/09/30 07:03:30;;;;;;;30.75;18.48;;;;;;;;;;5019694;28;20552;-68
2023/09/30 07:05:56;;;;;;;28.65;17.50;;;;;;;;;;5025892;28;20264;-68
2023/09/30 07:08:22;;;;;;;33.17;17.17;;;;;;;;;;5019575;28;20166;-69
2023/09/30 07:10:49;;;;;;;27.80;16.30;;;;;;;;;;5018958;28;20194;-69
2023/09/30 07:13:15;;;;;;;23.95;15.48;;;;;;;;;;5015954;28;20554;-69
2023/09/30 07:15:40;;;;;;;24.60;16.40;;;;;;;;;;5025668;28;20182;-69
2023/09/30 07:18:06;;;;;;;24.30;15.93;;;;;;;;;;5021859;28;20206;-69
2023/09/30 07:20:32;;;;;;;20.88;13.88;;;;;;;;;;5017728;28;20191;-70
2023/09/30 07:22:58;;;;;;;25.88;14.45;;;;;;;;;;5013777;28;20568;-68
2023/09/30 07:25:23;;;;;;;23.83;13.85;;;;;;;;;;5016138;28;20199;-69
2023/09/30 07:27:49;;;;;;;20.15;13.07;;;;;;;;;;5026651;28;20253;-69
2023/09/30 07:30:17;;;;;;;21.80;13.02;;;;;;;;;;5012679;28;20594;-69
2023/09/30 07:32:42;;;;;;;21.42;13.40;;;;;;;;;;5015315;28;20175;-69
2023/09/30 07:35:08;;;;;;;21.60;14.23;;;;;;;;;;5022647;28;20567;-69
2023/09/30 07:37:33;;;;;;;21.40;13.55;;;;;;;;;;5020196;28;20179;-69
2023/09/30 07:39:59;;;;;;;20.23;13.65;;;;;;;;;;5018728;28;20202;-70
2023/09/30 07:42:24;;;;;;;21.13;12.43;;;;;;;;;;5015088;28;20183;-69
2023/09/30 07:44:50;;;;;;;23.83;14.15;;;;;;;;;;5022519;28;20182;-69
2023/09/30 07:47:15;;;;;;;19.33;12.40;;;;;;;;;;5022942;28;20178;-69
2023/09/30 07:49:40;;;;;;;17.80;12.07;;;;;;;;;;5018181;28;20194;-69
2023/09/30 07:52:06;;;;;;;20.63;12.43;;;;;;;;;;5016465;28;20190;-69
2023/09/30 07:54:31;;;;;;;16.92;11.90;;;;;;;;;;5023547;28;20238;-68
2023/09/30 07:56:57;;;;;;;16.98;11.40;;;;;;;;;;5021640;28;20187;-69
2023/09/30 07:59:22;;;;;;;18.80;11.98;;;;;;;;;;5015962;28;20384;-69
2023/09/30 08:01:48;;;;;;;17.67;11.57;;;;;;;;;;5019558;28;20257;-68
2023/09/30 08:04:13;;;;;;;22.95;11.98;;;;;;;;;;5015350;28;20187;-71
2023/09/30 08:06:39;;;;;;;15.57;9.98;;;;;;;;;;5020597;28;20290;-68
2023/09/30 08:09:09;;;;;;;14.38;9.38;;;;;;;;;;5025107;28;20199;-69
2023/09/30 08:11:36;;;;;;;15.95;10.32;;;;;;;;;;5018984;28;20622;-69
2023/09/30 08:14:06;;;;;;;15.13;8.65;;;;;;;;;;5026064;28;20178;-69
2023/09/30 08:16:31;;;;;;;17.63;9.68;;;;;;;;;;5025704;28;20273;-69
2023/09/30 08:18:56;;;;;;;12.73;9.13;;;;;;;;;;5025389;28;20226;-69
2023/09/30 08:21:21;;;;;;;17.88;9.57;;;;;;;;;;5020033;28;20343;-69
2023/09/30 08:23:47;;;;;;;13.90;8.20;;;;;;;;;;5016853;28;20592;-70
2023/09/30 08:26:12;;;;;;;16.90;8.48;;;;;;;;;;5016421;28;20194;-69
2023/09/30 08:28:37;;;;;;;18.58;8.23;;;;;;;;;;5013464;28;20189;-69
2023/09/30 08:31:03;;;;;;;19.23;9.15;;;;;;;;;;5015920;28;20210;-70
2023/09/30 08:33:30;;;;;;;13.10;9.05;;;;;;;;;;5010992;28;20179;-70
2023/09/30 08:35:55;;;;;;;16.50;8.93;;;;;;;;;;5014020;28;20186;-69
2023/09/30 08:38:21;;;;;;;16.88;8.10;;;;;;;;;;5012979;28;20237;-69
2023/09/30 08:40:47;;;;;;;14.88;7.75;;;;;;;;;;5019658;28;20202;-68
2023/09/30 08:43:13;;;;;;;14.38;8.40;;;;;;;;;;5015240;28;20214;-68
2023/09/30 08:45:39;;;;;;;12.98;8.35;;;;;;;;;;5012043;28;20217;-69
2023/09/30 08:48:05;;;;;;;17.10;8.60;;;;;;;;;;5018007;28;20266;-69
2023/09/30 08:50:31;;;;;;;15.52;8.07;;;;;;;;;;5012234;28;20626;-69
2023/09/30 08:52:56;;;;;;;13.80;8.32;;;;;;;;;;5012628;28;20232;-69
2023/09/30 08:55:21;;;;;;;11.15;7.30;;;;;;;;;;5012805;28;20179;-69
2023/09/30 08:57:48;;;;;;;15.50;7.05;;;;;;;;;;5013519;28;20257;-69
2023/09/30 09:00:13;;;;;;;13.98;6.88;;;;;;;;;;5013045;28;20670;-69
2023/09/30 09:02:39;;;;;;;12.35;7.28;;;;;;;;;;5015169;28;20185;-67
2023/09/30 09:05:05;;;;;;;10.15;7.30;;;;;;;;;;5016776;28;20222;-69
2023/09/30 09:07:31;;;;;;;14.20;8.43;;;;;;;;;;5017841;28;20269;-69
2023/09/30 09:10:04;;;;;;;14.43;7.45;;;;;;;;;;5013727;28;20219;-69
2023/09/30 09:12:29;;;;;;;11.48;6.97;;;;;;;;;;5018329;28;20193;-68
2023/09/30 09:14:54;;;;;;;13.43;8.50;;;;;;;;;;5012442;28;20860;-68
2023/09/30 09:17:19;;;;;;;10.27;7.70;;;;;;;;;;5019914;28;20411;-69
2023/09/30 09:19:58;;;;;;;17.70;7.53;;;;;;;;;;5012399;28;20199;-69
2023/09/30 09:22:23;;;;;;;11.88;7.47;;;;;;;;;;5016263;28;20232;-69
2023/09/30 09:24:51;;;;;;;12.90;6.63;;;;;;;;;;5027415;28;20170;-69
2023/09/30 09:27:16;;;;;;;17.92;7.57;;;;;;;;;;5030511;28;20175;-69
2023/09/30 09:29:42;;;;;;;14.70;7.10;;;;;;;;;;5017733;28;20199;-69
2023/09/30 09:32:15;;;;;;;13.27;6.63;;;;;;;;;;5015753;28;20175;-68
2023/09/30 09:34:43;;;;;;;17.98;7.13;;;;;;;;;;5017958;28;20217;-69
2023/09/30 09:37:15;;;;;;;13.43;6.97;;;;;;;;;;5015516;28;20720;-68
2023/09/30 09:39:48;;;;;;;11.60;6.93;;;;;;;;;;5032343;28;20206;-69
2023/09/30 09:42:23;;;;;;;10.25;5.88;;;;;;;;;;5011341;28;20266;-69
2023/09/30 09:44:48;;;;;;;13.15;6.10;;;;;;;;;;5012885;28;20610;-69
2023/09/30 09:47:14;;;;;;;12.35;6.22;;;;;;;;;;5013907;28;20217;-68
2023/09/30 09:49:39;;;;;;;11.90;6.10;;;;;;;;;;5014151;28;20362;-68
2023/09/30 09:52:04;;;;;;;10.30;6.05;;;;;;;;;;5013017;28;20634;-68
2023/09/30 09:54:30;;;;;;;10.88;5.15;;;;;;;;;;5014267;28;20622;-69
2023/09/30 09:56:56;;;;;;;9.95;4.97;;;;;;;;;;5012909;28;20175;-68
2023/09/30 09:59:22;;;;;;;9.63;5.80;;;;;;;;;;5018813;28;20191;-68
2023/09/30 10:01:49;;;;;;;10.73;5.38;;;;;;;;;;5013506;28;20191;-69
2023/09/30 10:04:15;;;;;;;9.45;5.22;;;;;;;;;;5014720;28;20232;-69
2023/09/30 10:06:41;;;;;;;10.13;4.90;;;;;;;;;;5013783;28;20202;-69
2023/09/30 10:09:08;;;;;;;14.00;5.95;;;;;;;;;;5015694;28;20175;-69
2023/09/30 10:11:34;;;;;;;12.43;6.00;;;;;;;;;;5009494;28;20281;-68
2023/09/30 10:14:11;;;;;;;9.05;5.63;;;;;;;;;;5023494;28;20498;-70
2023/09/30 10:16:37;;;;;;;12.73;5.57;;;;;;;;;;5027966;28;20244;-69
2023/09/30 10:19:22;;;;;;;11.30;5.50;;;;;;;;;;5011773;28;20175;-70
2023/09/30 10:22:06;;;;;;;10.32;5.68;;;;;;;;;;5014664;28;20208;-71
2023/09/30 10:24:31;;;;;;;8.55;4.85;;;;;;;;;;5016967;28;20210;-76
2023/09/30 10:27:16;;;;;;;9.43;5.07;;;;;;;;;;5011304;28;20199;-76
2023/09/30 10:29:44;;;;;;;12.95;5.05;;;;;;;;;;5014666;28;20239;-78
2023/09/30 10:32:09;;;;;;;9.27;4.72;;;;;;;;;;5029627;28;20187;-81
2023/09/30 10:34:35;;;;;;;9.90;4.20;;;;;;;;;;5022117;28;20261;-80
2023/09/30 10:37:19;;;;;;;7.80;4.28;;;;;;;;;;5015987;28;20186;-80
2023/09/30 10:40:11;;;;;;;9.15;4.07;;;;;;;;;;5016672;28;20265;-80
2023/09/30 10:42:46;;;;;;;9.60;4.60;;;;;;;;;;5007960;28;20673;-81
2023/09/30 10:45:30;;;;;;;11.25;5.78;;;;;;;;;;5007608;28;20269;-76
2023/09/30 10:47:56;;;;;;;12.00;4.65;;;;;;;;;;5015847;28;20179;-80
2023/09/30 10:50:44;;;;;;;7.45;3.97;;;;;;;;;;5015261;28;20245;-80
2023/09/30 10:53:10;;;;;;;7.78;4.80;;;;;;;;;;5011214;28;20201;-79
2023/09/30 10:55:35;;;;;;;9.05;4.20;;;;;;;;;;5017895;28;20657;-79
2023/09/30 10:58:01;;;;;;;10.20;4.88;;;;;;;;;;5010686;28;20285;-80
2023/09/30 11:00:26;;;;;;;8.63;4.18;;;;;;;;;;5013522;28;20229;-80
2023/09/30 11:02:52;;;;;;;9.10;4.82;;;;;;;;;;5013327;28;20171;-80
2023/09/30 11:05:20;;;;;;;9.70;3.78;;;;;;;;;;5015840;28;20201;-79
2023/09/30 11:07:47;;;;;;;10.60;4.20;;;;;;;;;;5028106;28;20179;-78
2023/09/30 11:10:15;;;;;;;7.13;4.57;;;;;;;;;;5013908;28;20195;-72
2023/09/30 11:12:53;;;;;;;8.50;4.07;;;;;;;;;;5017191;28;20568;-67
2023/09/30 11:15:18;;;;;;;9.60;3.65;;;;;;;;;;5013841;28;20685;-69
2023/09/30 11:17:43;;;;;;;9.10;3.00;;;;;;;;;;5012819;28;20190;-68
2023/09/30 11:20:09;;;;;;;7.17;2.63;;;;;;;;;;5014547;28;20510;-69
2023/09/30 11:22:34;;;;;;;9.05;3.30;;;;;;;;;;5031796;28;20485;-69
2023/09/30 11:25:00;;;;;;;6.63;3.10;;;;;;;;;;5015674;28;20183;-70
2023/09/30 11:27:26;;;;;;;6.93;3.03;;;;;;;;;;5015988;28;20666;-69
2023/09/30 11:29:51;;;;;;;8.10;3.40;;;;;;;;;;5029138;28;20403;-69
2023/09/30 11:32:27;;;;;;;9.93;3.35;;;;;;;;;;5018839;28;20190;-69
2023/09/30 11:34:53;;;;;;;9.85;3.30;;;;;;;;;;5015454;28;20175;-68
2023/09/30 11:37:18;;;;;;;5.85;2.83;;;;;;;;;;5018089;28;20237;-68
2023/09/30 11:39:43;;;;;;;4.80;2.90;;;;;;;;;;5010939;28;20211;-69
2023/09/30 11:42:17;;;;;;;6.28;2.55;;;;;;;;;;5011963;28;20591;-68
2023/09/30 11:44:49;;;;;;;6.60;2.60;;;;;;;;;;5021056;28;20183;-68
2023/09/30 11:47:16;;;;;;;6.20;2.55;;;;;;;;;;5007930;28;20210;-69
2023/09/30 11:49:44;;;;;;;8.23;2.75;;;;;;;;;;5009935;28;20209;-68
2023/09/30 11:52:13;;;;;;;12.75;3.33;;;;;;;;;;5008988;28;20174;-68
2023/09/30 11:54:41;;;;;;;10.35;3.92;;;;;;;;;;5007767;28;20187;-69
2023/09/30 11:57:09;;;;;;;7.57;2.75;;;;;;;;;;5028789;28;20615;-75
2023/09/30 11:59:34;;;;;;;9.75;3.03;;;;;;;;;;5012451;28;20191;-77
2023/09/30 12:01:59;;;;;;;11.18;3.15;;;;;;;;;;5014337;28;20194;-76
2023/09/30 12:04:25;;;;;;;9.23;2.95;;;;;;;;;;5017507;28;20175;-72
2023/09/30 12:06:50;;;;;;;5.75;2.55;;;;;;;;;;5017432;28;20615;-75
2023/09/30 12:09:16;;;;;;;8.25;3.13;;;;;;;;;;5017494;28;20646;-77
2023/09/30 12:11:45;;;;;;;8.98;3.15;;;;;;;;;;5017531;28;20340;-78
2023/09/30 12:14:11;;;;;;;8.13;3.47;;;;;;;;;;5012483;28;20179;-75
2023/09/30 12:16:36;;;;;;;9.57;3.35;;;;;;;;;;5023314;28;20266;-76
2023/09/30 12:19:02;;;;;;;10.45;2.97;;;;;;;;;;5035911;28;20241;-76
2023/09/30 12:21:28;;;;;;;7.22;2.70;;;;;;;;;;5015661;28;20674;-78
2023/09/30 12:23:53;;;;;;;5.18;2.30;;;;;;;;;;5018955;28;20185;-75
2023/09/30 12:26:19;;;;;;;7.75;3.15;;;;;;;;;;5019459;28;20207;-74
2023/09/30 12:28:45;;;;;;;8.10;1.95;;;;;;;;;;5018036;28;20266;-74
2023/09/30 12:31:11;;;;;;;8.77;3.03;;;;;;;;;;5047619;23;20346;-67
2023/09/30 12:33:36;;;;;;;7.35;2.17;;;;;;;;;;5025820;28;20641;-68
2023/09/30 12:36:01;;;;;;;8.02;2.10;;;;;;;;;;5026596;28;20186;-68
2023/09/30 12:38:28;;;;;;;7.10;2.90;;;;;;;;;;5028898;28;20183;-68
2023/09/30 12:40:54;;;;;;;10.00;2.63;;;;;;;;;;5036787;28;20197;-66
2023/09/30 12:43:19;;;;;;;6.10;2.05;;;;;;;;;;5039912;28;20193;-66
2023/09/30 12:45:45;;;;;;;4.95;1.95;;;;;;;;;;5041861;28;20205;-65
2023/09/30 12:48:10;;;;;;;9.38;2.53;;;;;;;;;;5045613;28;20206;-68
2023/09/30 12:50:35;;;;;;;6.93;2.03;;;;;;;;;;5037456;28;20275;-70
2023/09/30 12:53:01;;;;;;;5.93;1.70;;;;;;;;;;5038796;28;20411;-68
2023/09/30 12:55:26;;;;;;;6.93;2.47;;;;;;;;;;5039111;28;20166;-67
2023/09/30 12:57:53;;;;;;;5.65;1.83;;;;;;;;;;5041490;28;20410;-66
2023/09/30 13:00:18;;;;;;;5.28;2.25;;;;;;;;;;5045011;28;20229;-68
2023/09/30 13:02:44;;;;;;;10.35;2.45;;;;;;;;;;5040463;28;20210;-69
2023/09/30 13:05:09;;;;;;;9.98;2.47;;;;;;;;;;5043850;28;20176;-69
2023/09/30 13:07:34;;;;;;;7.85;2.50;;;;;;;;;;5043097;28;20174;-66
2023/09/30 13:10:00;;;;;;;7.75;1.80;;;;;;;;;;5042453;28;20203;-67
2023/09/30 13:12:26;;;;;;;6.47;1.70;;;;;;;;;;5045417;28;20178;-68
2023/09/30 13:14:53;;;;;;;10.43;2.47;;;;;;;;;;5046012;28;20181;-68
2023/09/30 13:17:18;;;;;;;4.82;2.38;;;;;;;;;;5044784;28;20174;-66
2023/09/30 13:19:44;;;;;;;10.77;2.65;;;;;;;;;;5045799;28;20290;-66
2023/09/30 13:22:09;;;;;;;5.78;1.80;;;;;;;;;;5045421;28;20177;-66
2023/09/30 13:24:39;;;;;;;8.80;2.35;;;;;;;;;;5047980;28;20178;-65
2023/09/30 13:27:04;;;;;;;7.80;3.17;;;;;;;;;;5042846;28;20265;-65
2023/09/30 13:29:29;;;;;;;7.30;2.55;;;;;;;;;;5044294;28;20613;-67
2023/09/30 13:31:54;;;;;;;6.05;2.40;;;;;;;;;;5045392;28;20304;-65
2023/09/30 13:34:20;;;;;;;6.63;2.57;;;;;;;;;;5045260;28;20210;-65
2023/09/30 13:36:45;;;;;;;6.68;2.63;;;;;;;;;;5043132;28;20491;-66
2023/09/30 13:39:13;;;;;;;7.18;2.45;;;;;;;;;;5043112;28;20219;-66
2023/09/30 13:41:38;;;;;;;7.00;2.40;;;;;;;;;;5037837;28;20208;-66
2023/09/30 13:44:04;;;;;;;6.80;2.60;;;;;;;;;;5045800;28;20173;-65
2023/09/30 13:46:30;;;;;;;9.93;3.05;;;;;;;;;;5038944;28;20277;-67
2023/09/30 13:48:55;;;;;;;11.80;3.30;;;;;;;;;;5045284;28;20170;-67
2023/09/30 13:51:22;;;;;;;7.55;2.83;;;;;;;;;;5039800;28;20194;-67
2023/09/30 13:53:47;;;;;;;8.05;2.03;;;;;;;;;;5043688;28;20173;-66
2023/09/30 13:56:13;;;;;;;6.45;2.28;;;;;;;;;;5042634;28;20185;-66
2023/09/30 13:58:38;;;;;;;10.02;2.50;;;;;;;;;;5043244;28;20257;-68
2023/09/30 14:01:04;;;;;;;6.93;2.53;;;;;;;;;;5049609;28;20192;-68
2023/09/30 14:03:29;;;;;;;7.60;2.75;;;;;;;;;;5040256;28;20190;-68
2023/09/30 14:05:56;;;;;;;9.40;3.20;;;;;;;;;;5042790;28;20202;-66
2023/09/30 14:08:21;;;;;;;4.80;2.55;;;;;;;;;;5044934;28;20180;-66
2023/09/30 14:10:46;;;;;;;6.90;2.55;;;;;;;;;;5044098;28;20280;-66
2023/09/30 14:13:11;;;;;;;7.83;2.70;;;;;;;;;;5034563;28;20209;-66
2023/09/30 14:15:37;;;;;;;5.55;2.78;;;;;;;;;;5045717;28;21067;-67
2023/09/30 14:18:02;;;;;;;7.15;3.03;;;;;;;;;;5042410;28;20574;-67
2023/09/30 14:20:28;;;;;;;11.63;3.47;;;;;;;;;;5045252;28;20272;-67
2023/09/30 14:22:55;;;;;;;5.80;2.60;;;;;;;;;;5041955;28;20720;-67